sensor_id;sensor_type;location;lat;lon;timestamp;P1;durP1;ratioP1;P2;durP2;ratioP2
14102;SDS011;7129;48.832;12.472;2022-10-16T00:00:18;4.88;;;3.42;;
14102;SDS011;7129;48.832;12.472;2022-10-16T00:05:20;3.75;;;3.38;;
14102;SDS011;7129;48.832;12.472;2022-10-16T00:10:23;4.07;;;3.50;;
14102;SDS011;7129;48.832;12.472;2022-10-16T00:15:25;6.03;;;3.60;;
14102;SDS011;7129;48.832;12.472;2022-10-16T00:20:27;3.92;;;3.20;;
14102;SDS011;7129;48.832;12.472;2022-10-16T00:25:32;5.55;;;3.72;;
14102;SDS011;7129;48.832;12.472;2022-10-16T00:30:37;4.70;;;3.90;;
14102;SDS011;7129;48.832;12.472;2022-10-16T00:35:39;5.03;;;3.30;;
14102;SDS011;7129;48.832;12.472;2022-10-16T00:40:43;4.80;;;3.80;;
14102;SDS011;7129;48.832;12.472;2022-10-16T00:45:56;3.20;;;2.90;;
14102;SDS011;7129;48.832;12.472;2022-10-16T00:51:05;4.80;;;3.70;;
14102;SDS011;7129;48.832;12.472;2022-10-16T00:56:39;3.05;;;2.83;;
14102;SDS011;7129;48.832;12.472;2022-10-16T01:01:41;7.03;;;3.28;;
14102;SDS011;7129;48.832;12.472;2022-10-16T01:06:46;3.25;;;2.85;;
14102;SDS011;7129;48.832;12.472;2022-10-16T01:12:01;4.32;;;3.35;;
14102;SDS011;7129;48.832;12.472;2022-10-16T01:17:11;3.67;;;2.80;;
14102;SDS011;7129;48.832;12.472;2022-10-16T01:22:16;5.85;;;2.58;;
14102;SDS011;7129;48.832;12.472;2022-10-16T01:27:23;4.22;;;2.78;;
14102;SDS011;7129;48.832;12.472;2022-10-16T01:32:30;4.85;;;2.72;;
14102;SDS011;7129;48.832;12.472;2022-10-16T01:37:36;5.95;;;2.78;;
14102;SDS011;7129;48.832;12.472;2022-10-16T01:42:44;5.00;;;2.33;;
14102;SDS011;7129;48.832;12.472;2022-10-16T01:47:50;3.85;;;2.58;;
14102;SDS011;7129;48.832;12.472;2022-10-16T01:52:54;4.78;;;2.30;;
14102;SDS011;7129;48.832;12.472;2022-10-16T01:57:58;4.68;;;2.85;;
14102;SDS011;7129;48.832;12.472;2022-10-16T02:03:03;3.83;;;2.70;;
14102;SDS011;7129;48.832;12.472;2022-10-16T02:08:07;4.22;;;2.40;;
14102;SDS011;7129;48.832;12.472;2022-10-16T02:13:11;3.00;;;2.13;;
14102;SDS011;7129;48.832;12.472;2022-10-16T02:18:17;3.60;;;2.63;;
14102;SDS011;7129;48.832;12.472;2022-10-16T02:35:14;9.05;;;2.97;;
14102;SDS011;7129;48.832;12.472;2022-10-16T02:40:18;3.67;;;2.67;;
14102;SDS011;7129;48.832;12.472;2022-10-16T02:45:20;5.07;;;2.42;;
14102;SDS011;7129;48.832;12.472;2022-10-16T02:50:24;2.80;;;2.47;;
14102;SDS011;7129;48.832;12.472;2022-10-16T02:55:26;1.83;;;1.73;;
14102;SDS011;7129;48.832;12.472;2022-10-16T03:00:28;6.63;;;2.13;;
14102;SDS011;7129;48.832;12.472;2022-10-16T03:05:41;2.65;;;2.15;;
14102;SDS011;7129;48.832;12.472;2022-10-16T03:10:45;3.38;;;2.10;;
14102;SDS011;7129;48.832;12.472;2022-10-16T03:15:47;2.30;;;2.10;;
14102;SDS011;7129;48.832;12.472;2022-10-16T03:20:51;5.45;;;2.35;;
14102;SDS011;7129;48.832;12.472;2022-10-16T03:26:17;4.10;;;2.22;;
14102;SDS011;7129;48.832;12.472;2022-10-16T03:31:38;4.40;;;2.40;;
14102;SDS011;7129;48.832;12.472;2022-10-16T03:36:42;4.57;;;2.70;;
14102;SDS011;7129;48.832;12.472;2022-10-16T03:41:44;5.60;;;2.35;;
14102;SDS011;7129;48.832;12.472;2022-10-16T03:46:46;3.78;;;3.13;;
14102;SDS011;7129;48.832;12.472;2022-10-16T03:51:49;3.65;;;3.25;;
14102;SDS011;7129;48.832;12.472;2022-10-16T03:56:51;5.53;;;3.78;;
14102;SDS011;7129;48.832;12.472;2022-10-16T04:01:53;4.68;;;4.28;;
14102;SDS011;7129;48.832;12.472;2022-10-16T04:06:57;4.75;;;3.28;;
14102;SDS011;7129;48.832;12.472;2022-10-16T04:11:59;4.75;;;3.50;;
14102;SDS011;7129;48.832;12.472;2022-10-16T04:17:00;7.53;;;3.78;;
14102;SDS011;7129;48.832;12.472;2022-10-16T04:22:04;10.00;;;3.30;;
14102;SDS011;7129;48.832;12.472;2022-10-16T04:27:06;3.95;;;3.00;;
14102;SDS011;7129;48.832;12.472;2022-10-16T04:32:08;4.25;;;3.80;;
14102;SDS011;7129;48.832;12.472;2022-10-16T04:37:12;8.07;;;3.50;;
14102;SDS011;7129;48.832;12.472;2022-10-16T04:42:14;4.55;;;4.13;;
14102;SDS011;7129;48.832;12.472;2022-10-16T04:47:16;7.47;;;4.00;;
14102;SDS011;7129;48.832;12.472;2022-10-16T04:52:19;4.40;;;4.00;;
14102;SDS011;7129;48.832;12.472;2022-10-16T04:57:21;6.75;;;4.07;;
14102;SDS011;7129;48.832;12.472;2022-10-16T05:02:23;5.25;;;4.70;;
14102;SDS011;7129;48.832;12.472;2022-10-16T05:07:27;4.88;;;4.40;;
14102;SDS011;7129;48.832;12.472;2022-10-16T05:12:33;7.93;;;4.45;;
14102;SDS011;7129;48.832;12.472;2022-10-16T05:17:47;6.88;;;5.70;;
14102;SDS011;7129;48.832;12.472;2022-10-16T05:22:50;6.25;;;5.68;;
14102;SDS011;7129;48.832;12.472;2022-10-16T05:27:52;6.38;;;5.78;;
14102;SDS011;7129;48.832;12.472;2022-10-16T05:32:54;8.93;;;5.53;;
14102;SDS011;7129;48.832;12.472;2022-10-16T05:38:00;5.95;;;5.35;;
14102;SDS011;7129;48.832;12.472;2022-10-16T05:43:02;6.68;;;5.95;;
14102;SDS011;7129;48.832;12.472;2022-10-16T05:48:04;7.70;;;6.70;;
14102;SDS011;7129;48.832;12.472;2022-10-16T05:53:08;7.07;;;6.38;;
14102;SDS011;7129;48.832;12.472;2022-10-16T05:58:10;5.90;;;5.40;;
14102;SDS011;7129;48.832;12.472;2022-10-16T06:03:12;6.78;;;6.20;;
14102;SDS011;7129;48.832;12.472;2022-10-16T06:13:49;8.35;;;6.72;;
14102;SDS011;7129;48.832;12.472;2022-10-16T06:18:51;9.57;;;8.25;;
14102;SDS011;7129;48.832;12.472;2022-10-16T06:23:55;10.18;;;9.18;;
14102;SDS011;7129;48.832;12.472;2022-10-16T06:28:58;10.02;;;9.02;;
14102;SDS011;7129;48.832;12.472;2022-10-16T06:34:01;11.48;;;9.40;;
14102;SDS011;7129;48.832;12.472;2022-10-16T06:39:06;8.95;;;8.02;;
14102;SDS011;7129;48.832;12.472;2022-10-16T06:44:15;9.57;;;7.93;;
14102;SDS011;7129;48.832;12.472;2022-10-16T06:49:25;8.25;;;6.97;;
14102;SDS011;7129;48.832;12.472;2022-10-16T06:54:30;7.93;;;7.13;;
14102;SDS011;7129;48.832;12.472;2022-10-16T06:59:32;8.52;;;7.10;;
14102;SDS011;7129;48.832;12.472;2022-10-16T07:04:33;7.00;;;6.18;;
14102;SDS011;7129;48.832;12.472;2022-10-16T07:09:38;6.80;;;6.10;;
14102;SDS011;7129;48.832;12.472;2022-10-16T07:14:41;6.10;;;5.50;;
14102;SDS011;7129;48.832;12.472;2022-10-16T07:19:44;5.78;;;5.20;;
14102;SDS011;7129;48.832;12.472;2022-10-16T07:24:47;5.03;;;4.53;;
14102;SDS011;7129;48.832;12.472;2022-10-16T07:29:50;4.72;;;4.15;;
14102;SDS011;7129;48.832;12.472;2022-10-16T07:34:52;6.75;;;4.97;;
14102;SDS011;7129;48.832;12.472;2022-10-16T07:39:57;3.95;;;3.65;;
14102;SDS011;7129;48.832;12.472;2022-10-16T07:44:58;5.70;;;4.20;;
14102;SDS011;7129;48.832;12.472;2022-10-16T07:50:00;4.97;;;4.40;;
14102;SDS011;7129;48.832;12.472;2022-10-16T07:55:04;5.05;;;4.25;;
14102;SDS011;7129;48.832;12.472;2022-10-16T08:00:07;5.18;;;4.18;;
14102;SDS011;7129;48.832;12.472;2022-10-16T08:05:13;4.93;;;4.47;;
14102;SDS011;7129;48.832;12.472;2022-10-16T08:10:17;4.38;;;3.97;;
14102;SDS011;7129;48.832;12.472;2022-10-16T08:15:20;5.05;;;4.15;;
14102;SDS011;7129;48.832;12.472;2022-10-16T08:20:22;6.70;;;4.25;;
14102;SDS011;7129;48.832;12.472;2022-10-16T08:25:28;4.43;;;3.95;;
14102;SDS011;7129;48.832;12.472;2022-10-16T08:30:30;6.22;;;4.18;;
14102;SDS011;7129;48.832;12.472;2022-10-16T08:35:33;4.43;;;4.05;;
14102;SDS011;7129;48.832;12.472;2022-10-16T08:40:36;3.95;;;3.65;;
14102;SDS011;7129;48.832;12.472;2022-10-16T08:45:41;3.38;;;3.08;;
14102;SDS011;7129;48.832;12.472;2022-10-16T08:50:52;4.50;;;3.30;;
14102;SDS011;7129;48.832;12.472;2022-10-16T08:55:56;3.00;;;2.60;;
14102;SDS011;7129;48.832;12.472;2022-10-16T09:01:32;2.88;;;2.25;;
14102;SDS011;7129;48.832;12.472;2022-10-16T09:06:43;2.85;;;2.65;;
14102;SDS011;7129;48.832;12.472;2022-10-16T09:11:50;2.55;;;2.35;;
14102;SDS011;7129;48.832;12.472;2022-10-16T09:16:58;2.60;;;2.30;;
14102;SDS011;7129;48.832;12.472;2022-10-16T09:22:09;3.72;;;2.55;;
14102;SDS011;7129;48.832;12.472;2022-10-16T09:27:16;2.80;;;2.60;;
14102;SDS011;7129;48.832;12.472;2022-10-16T09:32:19;7.72;;;2.75;;
14102;SDS011;7129;48.832;12.472;2022-10-16T09:37:23;4.55;;;2.72;;
14102;SDS011;7129;48.832;12.472;2022-10-16T09:42:30;2.22;;;2.13;;
14102;SDS011;7129;48.832;12.472;2022-10-16T09:47:43;2.50;;;2.33;;
14102;SDS011;7129;48.832;12.472;2022-10-16T09:52:46;2.63;;;2.42;;
14102;SDS011;7129;48.832;12.472;2022-10-16T09:57:49;2.45;;;2.13;;
14102;SDS011;7129;48.832;12.472;2022-10-16T10:02:52;3.95;;;2.38;;
14102;SDS011;7129;48.832;12.472;2022-10-16T10:07:55;2.58;;;2.38;;
14102;SDS011;7129;48.832;12.472;2022-10-16T10:13:00;2.47;;;2.28;;
14102;SDS011;7129;48.832;12.472;2022-10-16T10:18:14;2.65;;;2.42;;
14102;SDS011;7129;48.832;12.472;2022-10-16T10:23:20;2.58;;;1.70;;
14102;SDS011;7129;48.832;12.472;2022-10-16T10:33:55;2.47;;;2.10;;
14102;SDS011;7129;48.832;12.472;2022-10-16T10:39:04;1.85;;;1.75;;
14102;SDS011;7129;48.832;12.472;2022-10-16T10:44:14;2.38;;;2.10;;
14102;SDS011;7129;48.832;12.472;2022-10-16T10:49:28;3.10;;;1.90;;
14102;SDS011;7129;48.832;12.472;2022-10-16T10:54:40;1.80;;;1.70;;
14102;SDS011;7129;48.832;12.472;2022-10-16T10:59:53;1.70;;;1.60;;
14102;SDS011;7129;48.832;12.472;2022-10-16T11:05:14;4.45;;;2.00;;
14102;SDS011;7129;48.832;12.472;2022-10-16T11:10:27;3.25;;;1.92;;
14102;SDS011;7129;48.832;12.472;2022-10-16T11:15:34;1.80;;;1.70;;
14102;SDS011;7129;48.832;12.472;2022-10-16T11:20:40;5.22;;;2.20;;
14102;SDS011;7129;48.832;12.472;2022-10-16T11:25:45;3.38;;;1.73;;
14102;SDS011;7129;48.832;12.472;2022-10-16T11:30:53;1.60;;;1.50;;
14102;SDS011;7129;48.832;12.472;2022-10-16T11:41:35;1.65;;;1.55;;
14102;SDS011;7129;48.832;12.472;2022-10-16T11:46:43;1.80;;;1.70;;
14102;SDS011;7129;48.832;12.472;2022-10-16T11:51:51;3.85;;;1.70;;
14102;SDS011;7129;48.832;12.472;2022-10-16T11:57:12;2.35;;;1.77;;
14102;SDS011;7129;48.832;12.472;2022-10-16T12:07:42;2.38;;;1.80;;
14102;SDS011;7129;48.832;12.472;2022-10-16T12:12:51;1.83;;;1.73;;
14102;SDS011;7129;48.832;12.472;2022-10-16T12:17:55;2.65;;;1.75;;
14102;SDS011;7129;48.832;12.472;2022-10-16T12:22:59;1.70;;;1.60;;
14102;SDS011;7129;48.832;12.472;2022-10-16T12:28:03;2.10;;;1.65;;
14102;SDS011;7129;48.832;12.472;2022-10-16T12:33:18;3.08;;;1.90;;
14102;SDS011;7129;48.832;12.472;2022-10-16T12:38:25;2.45;;;1.95;;
14102;SDS011;7129;48.832;12.472;2022-10-16T12:43:35;1.85;;;1.73;;
14102;SDS011;7129;48.832;12.472;2022-10-16T12:48:41;2.35;;;2.15;;
14102;SDS011;7129;48.832;12.472;2022-10-16T12:53:45;3.85;;;2.15;;
14102;SDS011;7129;48.832;12.472;2022-10-16T12:58:51;4.93;;;1.95;;
14102;SDS011;7129;48.832;12.472;2022-10-16T13:04:21;2.30;;;2.10;;
14102;SDS011;7129;48.832;12.472;2022-10-16T13:09:37;2.33;;;2.00;;
14102;SDS011;7129;48.832;12.472;2022-10-16T13:14:55;3.83;;;2.10;;
14102;SDS011;7129;48.832;12.472;2022-10-16T13:20:18;2.20;;;1.80;;
14102;SDS011;7129;48.832;12.472;2022-10-16T13:25:30;2.63;;;1.88;;
14102;SDS011;7129;48.832;12.472;2022-10-16T13:30:40;2.08;;;1.98;;
14102;SDS011;7129;48.832;12.472;2022-10-16T13:35:49;4.20;;;1.80;;
14102;SDS011;7129;48.832;12.472;2022-10-16T13:40:52;2.10;;;1.90;;
14102;SDS011;7129;48.832;12.472;2022-10-16T13:45:57;1.95;;;1.52;;
14102;SDS011;7129;48.832;12.472;2022-10-16T13:51:10;7.63;;;2.20;;
14102;SDS011;7129;48.832;12.472;2022-10-16T13:56:15;2.05;;;1.95;;
14102;SDS011;7129;48.832;12.472;2022-10-16T14:01:19;3.60;;;2.10;;
14102;SDS011;7129;48.832;12.472;2022-10-16T14:06:25;2.17;;;1.98;;
14102;SDS011;7129;48.832;12.472;2022-10-16T14:11:27;3.58;;;2.20;;
14102;SDS011;7129;48.832;12.472;2022-10-16T14:16:30;2.70;;;2.50;;
14102;SDS011;7129;48.832;12.472;2022-10-16T14:21:35;2.80;;;2.40;;
14102;SDS011;7129;48.832;12.472;2022-10-16T14:26:41;3.75;;;2.10;;
14102;SDS011;7129;48.832;12.472;2022-10-16T14:31:53;4.93;;;2.70;;
14102;SDS011;7129;48.832;12.472;2022-10-16T14:36:59;2.47;;;2.28;;
14102;SDS011;7129;48.832;12.472;2022-10-16T14:42:11;3.00;;;2.80;;
14102;SDS011;7129;48.832;12.472;2022-10-16T14:47:18;2.67;;;2.47;;
14102;SDS011;7129;48.832;12.472;2022-10-16T14:52:25;3.45;;;2.90;;
14102;SDS011;7129;48.832;12.472;2022-10-16T14:57:27;4.25;;;3.15;;
14102;SDS011;7129;48.832;12.472;2022-10-16T15:02:34;4.03;;;2.85;;
14102;SDS011;7129;48.832;12.472;2022-10-16T15:07:39;3.13;;;2.83;;
14102;SDS011;7129;48.832;12.472;2022-10-16T15:12:41;3.88;;;3.45;;
14102;SDS011;7129;48.832;12.472;2022-10-16T15:17:43;5.70;;;5.20;;
14102;SDS011;7129;48.832;12.472;2022-10-16T15:22:46;6.35;;;5.25;;
14102;SDS011;7129;48.832;12.472;2022-10-16T15:27:48;6.43;;;5.10;;
14102;SDS011;7129;48.832;12.472;2022-10-16T15:32:51;8.10;;;5.53;;
14102;SDS011;7129;48.832;12.472;2022-10-16T15:37:54;7.97;;;5.70;;
14102;SDS011;7129;48.832;12.472;2022-10-16T15:42:56;6.68;;;6.07;;
14102;SDS011;7129;48.832;12.472;2022-10-16T15:48:01;6.55;;;5.85;;
14102;SDS011;7129;48.832;12.472;2022-10-16T15:53:04;7.25;;;6.15;;
14102;SDS011;7129;48.832;12.472;2022-10-16T15:58:06;5.95;;;5.35;;
14102;SDS011;7129;48.832;12.472;2022-10-16T16:03:08;7.32;;;5.47;;
14102;SDS011;7129;48.832;12.472;2022-10-16T16:08:12;8.63;;;5.72;;
14102;SDS011;7129;48.832;12.472;2022-10-16T16:13:13;5.53;;;5.03;;
14102;SDS011;7129;48.832;12.472;2022-10-16T16:18:15;6.40;;;5.80;;
14102;SDS011;7129;48.832;12.472;2022-10-16T16:23:19;5.70;;;5.20;;
14102;SDS011;7129;48.832;12.472;2022-10-16T16:28:22;5.35;;;4.90;;
14102;SDS011;7129;48.832;12.472;2022-10-16T16:33:24;6.43;;;5.82;;
14102;SDS011;7129;48.832;12.472;2022-10-16T16:38:27;7.35;;;5.60;;
14102;SDS011;7129;48.832;12.472;2022-10-16T16:43:33;7.95;;;5.82;;
14102;SDS011;7129;48.832;12.472;2022-10-16T16:48:35;8.15;;;5.72;;
14102;SDS011;7129;48.832;12.472;2022-10-16T16:59:10;8.18;;;6.15;;
14102;SDS011;7129;48.832;12.472;2022-10-16T17:04:14;6.15;;;5.07;;
14102;SDS011;7129;48.832;12.472;2022-10-16T17:09:18;6.22;;;5.63;;
14102;SDS011;7129;48.832;12.472;2022-10-16T17:14:20;6.88;;;5.43;;
14102;SDS011;7129;48.832;12.472;2022-10-16T17:19:22;7.30;;;5.18;;
14102;SDS011;7129;48.832;12.472;2022-10-16T17:24:25;8.20;;;5.60;;
14102;SDS011;7129;48.832;12.472;2022-10-16T17:29:27;7.47;;;5.45;;
14102;SDS011;7129;48.832;12.472;2022-10-16T17:39:43;6.75;;;5.68;;
14102;SDS011;7129;48.832;12.472;2022-10-16T17:44:45;7.35;;;5.68;;
14102;SDS011;7129;48.832;12.472;2022-10-16T17:49:47;7.35;;;5.05;;
14102;SDS011;7129;48.832;12.472;2022-10-16T18:06:27;6.82;;;5.57;;
14102;SDS011;7129;48.832;12.472;2022-10-16T18:11:31;9.23;;;6.05;;
14102;SDS011;7129;48.832;12.472;2022-10-16T18:28:50;5.60;;;5.10;;
14102;SDS011;7129;48.832;12.472;2022-10-16T19:04:47;7.28;;;6.18;;
14102;SDS011;7129;48.832;12.472;2022-10-16T19:15:46;7.10;;;6.15;;
14102;SDS011;7129;48.832;12.472;2022-10-16T19:20:55;7.72;;;6.28;;
14102;SDS011;7129;48.832;12.472;2022-10-16T19:26:01;6.63;;;6.03;;
14102;SDS011;7129;48.832;12.472;2022-10-16T19:31:05;6.85;;;6.15;;
14102;SDS011;7129;48.832;12.472;2022-10-16T19:58:05;8.07;;;5.97;;
14102;SDS011;7129;48.832;12.472;2022-10-16T20:03:07;6.55;;;5.30;;
14102;SDS011;7129;48.832;12.472;2022-10-16T20:08:09;8.15;;;6.18;;
14102;SDS011;7129;48.832;12.472;2022-10-16T20:13:12;7.50;;;6.20;;
14102;SDS011;7129;48.832;12.472;2022-10-16T20:18:31;7.60;;;6.40;;
14102;SDS011;7129;48.832;12.472;2022-10-16T20:23:44;6.30;;;5.68;;
14102;SDS011;7129;48.832;12.472;2022-10-16T20:29:26;5.63;;;4.70;;
14102;SDS011;7129;48.832;12.472;2022-10-16T20:34:42;6.50;;;4.95;;
14102;SDS011;7129;48.832;12.472;2022-10-16T20:45:06;9.25;;;4.63;;
14102;SDS011;7129;48.832;12.472;2022-10-16T20:50:09;5.15;;;4.63;;
14102;SDS011;7129;48.832;12.472;2022-10-16T20:55:13;5.60;;;4.50;;
14102;SDS011;7129;48.832;12.472;2022-10-16T21:00:18;5.65;;;4.57;;
14102;SDS011;7129;48.832;12.472;2022-10-16T21:05:20;7.00;;;4.47;;
14102;SDS011;7129;48.832;12.472;2022-10-16T21:10:22;5.15;;;4.13;;
14102;SDS011;7129;48.832;12.472;2022-10-16T21:20:55;6.40;;;4.55;;
14102;SDS011;7129;48.832;12.472;2022-10-16T21:25:57;4.57;;;4.18;;
14102;SDS011;7129;48.832;12.472;2022-10-16T21:31:10;6.38;;;4.30;;
14102;SDS011;7129;48.832;12.472;2022-10-16T21:36:14;9.38;;;4.78;;
14102;SDS011;7129;48.832;12.472;2022-10-16T21:41:18;5.18;;;4.22;;
14102;SDS011;7129;48.832;12.472;2022-10-16T21:46:24;6.03;;;4.60;;
14102;SDS011;7129;48.832;12.472;2022-10-16T21:51:28;4.50;;;4.10;;
14102;SDS011;7129;48.832;12.472;2022-10-16T21:56:32;8.45;;;4.80;;
14102;SDS011;7129;48.832;12.472;2022-10-16T22:01:36;6.78;;;4.65;;
14102;SDS011;7129;48.832;12.472;2022-10-16T22:06:38;5.68;;;4.28;;
14102;SDS011;7129;48.832;12.472;2022-10-16T22:22:15;6.95;;;4.13;;
14102;SDS011;7129;48.832;12.472;2022-10-16T22:27:16;4.70;;;4.25;;
14102;SDS011;7129;48.832;12.472;2022-10-16T22:32:19;4.53;;;4.00;;
14102;SDS011;7129;48.832;12.472;2022-10-16T22:42:33;6.25;;;4.60;;
14102;SDS011;7129;48.832;12.472;2022-10-16T22:47:34;6.57;;;4.75;;
14102;SDS011;7129;48.832;12.472;2022-10-16T22:52:36;5.80;;;5.20;;
14102;SDS011;7129;48.832;12.472;2022-10-16T22:57:40;5.20;;;4.63;;
14102;SDS011;7129;48.832;12.472;2022-10-16T23:02:42;4.90;;;4.50;;
14102;SDS011;7129;48.832;12.472;2022-10-16T23:07:44;6.13;;;5.05;;
14102;SDS011;7129;48.832;12.472;2022-10-16T23:12:48;8.82;;;4.57;;
14102;SDS011;7129;48.832;12.472;2022-10-16T23:17:49;5.47;;;4.88;;
14102;SDS011;7129;48.832;12.472;2022-10-16T23:22:51;6.15;;;4.85;;
14102;SDS011;7129;48.832;12.472;2022-10-16T23:27:55;5.22;;;4.72;;
14102;SDS011;7129;48.832;12.472;2022-10-16T23:32:57;6.75;;;5.03;;
14102;SDS011;7129;48.832;12.472;2022-10-16T23:37:59;11.05;;;4.82;;
14102;SDS011;7129;48.832;12.472;2022-10-16T23:43:02;7.93;;;5.38;;
14102;SDS011;7129;48.832;12.472;2022-10-16T23:48:04;6.63;;;4.80;;
14102;SDS011;7129;48.832;12.472;2022-10-16T23:53:06;5.38;;;4.88;;
14102;SDS011;7129;48.832;12.472;2022-10-16T23:58:23;6.85;;;4.68;;
